Time;durP1;ratioP1;P1;durP2;ratioP2;P2;SDS_P1;SDS_P2;PMS_P1;PMS_P2;Temp;Humidity;BMP_temperature;BMP_pressure;BME280_temperature;BME280_humidity;BME280_pressure;Samples;Min_cycle;Max_cycle;Signal;HPM_P1;HPM_P2
2022/08/09 00:01:54;;;;;;;4.80;2.67;;;16.00;96.70;;;;;;4248717;27;20479;-82
2022/08/09 00:03:55;;;;;;;7.75;2.60;;;15.90;96.80;;;;;;4248628;27;20035;-82
2022/08/09 00:05:55;;;;;;;7.75;2.78;;;16.00;96.90;;;;;;4229662;28;20044;-82
2022/08/09 00:07:56;;;;;;;3.65;2.85;;;16.00;96.90;;;;;;4236654;27;20403;-82
2022/08/09 00:09:57;;;;;;;5.40;3.03;;;15.90;97.00;;;;;;4266076;27;20546;-81
2022/08/09 00:12:01;;;;;;;4.22;2.90;;;15.90;97.20;;;;;;4265564;27;20049;-82
2022/08/09 00:14:05;;;;;;;6.80;3.20;;;15.90;97.30;;;;;;4265615;27;20129;-82
2022/08/09 00:16:07;;;;;;;5.10;3.05;;;15.90;97.30;;;;;;4260467;27;20103;-82
2022/08/09 00:18:08;;;;;;;3.35;2.50;;;15.90;97.40;;;;;;4248254;27;20058;-82
2022/08/09 00:20:12;;;;;;;3.58;2.05;;;15.90;97.50;;;;;;4247783;27;20128;-82
2022/08/09 00:22:13;;;;;;;4.32;2.40;;;15.80;97.30;;;;;;4260616;27;20131;-82
2022/08/09 00:24:13;;;;;;;3.85;1.75;;;15.80;97.20;;;;;;4265383;27;20050;-83
2022/08/09 00:26:14;;;;;;;3.13;1.77;;;15.80;97.20;;;;;;4265307;27;20455;-83
2022/08/09 00:28:15;;;;;;;3.83;1.98;;;15.70;97.10;;;;;;4265141;27;20107;-83
2022/08/09 00:30:16;;;;;;;3.78;2.42;;;15.70;97.20;;;;;;4265314;27;20039;-83
2022/08/09 00:32:16;;;;;;;2.08;1.77;;;15.60;97.30;;;;;;4229931;28;20561;-82
2022/08/09 00:34:19;;;;;;;2.10;1.42;;;15.60;97.30;;;;;;4247077;27;20457;-83
2022/08/09 00:36:21;;;;;;;2.58;1.23;;;15.60;97.30;;;;;;4246701;27;20042;-82
2022/08/09 00:38:21;;;;;;;3.58;1.20;;;15.50;97.40;;;;;;4248030;27;20047;-83
2022/08/09 00:40:22;;;;;;;1.50;1.10;;;15.50;97.40;;;;;;4230019;28;20578;-81
2022/08/09 00:42:23;;;;;;;1.40;0.85;;;15.50;97.50;;;;;;4229738;28;20157;-81
2022/08/09 00:44:24;;;;;;;2.35;0.88;;;15.40;97.50;;;;;;4247852;27;20051;-81
2022/08/09 00:46:28;;;;;;;1.02;0.93;;;15.40;97.50;;;;;;4247938;27;20043;-82
2022/08/09 00:48:29;;;;;;;1.40;1.08;;;15.30;97.60;;;;;;4229745;28;20087;-81
2022/08/09 00:50:30;;;;;;;1.10;0.88;;;15.30;97.70;;;;;;4247857;27;20069;-80
2022/08/09 00:52:31;;;;;;;2.40;1.02;;;15.30;97.80;;;;;;4212219;28;20048;-81
2022/08/09 00:54:35;;;;;;;1.10;0.90;;;15.30;97.90;;;;;;4248010;27;20511;-81
2022/08/09 00:56:35;;;;;;;1.85;0.98;;;15.30;98.00;;;;;;4229697;28;20048;-81
2022/08/09 00:58:36;;;;;;;2.25;1.20;;;15.20;98.20;;;;;;4229456;28;20396;-82
2022/08/09 01:00:40;;;;;;;1.17;0.93;;;15.20;98.10;;;;;;4247527;27;20508;-82
2022/08/09 01:02:56;;;;;;;3.00;1.20;;;15.20;98.40;;;;;;4247843;27;20169;-82
2022/08/09 01:05:26;;;;;;;2.55;1.10;;;15.20;98.20;;;;;;4248113;27;20057;-82
2022/08/09 01:07:35;;;;;;;1.55;0.90;;;15.20;98.40;;;;;;4257608;27;20042;-82
2022/08/09 01:09:38;;;;;;;2.47;1.15;;;15.10;98.40;;;;;;4265166;27;20448;-83
2022/08/09 01:11:58;;;;;;;3.83;1.13;;;15.00;98.40;;;;;;4265150;27;20347;-82
2022/08/09 01:14:03;;;;;;;1.52;1.00;;;15.00;98.70;;;;;;4245738;27;20051;-82
2022/08/09 01:16:06;;;;;;;1.77;1.42;;;15.00;98.60;;;;;;4246930;27;20059;-82
2022/08/09 01:18:09;;;;;;;3.22;0.90;;;15.00;98.60;;;;;;4265182;27;20517;-82
2022/08/09 01:20:27;;;;;;;3.42;1.23;;;15.00;98.50;;;;;;4264561;27;20403;-82
2022/08/09 01:23:09;;;;;;;1.60;0.95;;;15.00;98.50;;;;;;4264553;27;20394;-82
2022/08/09 01:25:38;;;;;;;1.30;1.20;;;15.00;98.70;;;;;;4229283;28;20052;-82
2022/08/09 01:27:40;;;;;;;2.88;1.40;;;14.90;98.80;;;;;;4264475;27;20071;-82
2022/08/09 01:29:48;;;;;;;1.98;1.15;;;14.90;99.00;;;;;;4264930;27;20079;-82
2022/08/09 01:31:50;;;;;;;3.10;1.67;;;14.90;98.90;;;;;;4244902;28;20047;-82
2022/08/09 01:33:53;;;;;;;3.15;1.50;;;14.90;98.90;;;;;;4264913;27;20047;-82
2022/08/09 01:36:03;;;;;;;1.67;1.38;;;14.90;99.10;;;;;;4245926;28;20055;-82
2022/08/09 01:38:07;;;;;;;2.78;1.80;;;14.90;99.20;;;;;;4233995;28;20508;-82
2022/08/09 01:40:10;;;;;;;1.88;1.50;;;14.90;99.30;;;;;;4247694;28;20050;-82
2022/08/09 01:42:15;;;;;;;2.08;1.30;;;14.90;99.30;;;;;;4247700;28;20559;-82
2022/08/09 01:44:16;;;;;;;2.92;1.27;;;14.80;99.30;;;;;;4247149;28;20104;-82
2022/08/09 01:46:30;;;;;;;3.30;1.60;;;14.80;99.40;;;;;;4247590;28;20399;-82
2022/08/09 01:48:32;;;;;;;2.88;1.55;;;14.80;99.50;;;;;;4247599;28;20066;-82
2022/08/09 01:50:34;;;;;;;3.42;1.73;;;14.80;99.60;;;;;;4228984;28;20040;-82
2022/08/09 01:52:37;;;;;;;4.10;1.30;;;14.70;99.70;;;;;;4237590;28;20050;-82
2022/08/09 01:54:47;;;;;;;3.08;1.70;;;14.70;99.80;;;;;;4246344;28;20082;-82
2022/08/09 01:56:50;;;;;;;2.75;1.70;;;14.80;99.80;;;;;;4246243;28;20051;-82
2022/08/09 01:58:54;;;;;;;1.90;1.60;;;14.70;99.80;;;;;;4246059;28;20051;-82
2022/08/09 02:00:58;;;;;;;4.50;1.85;;;14.70;99.80;;;;;;4246450;28;20107;-82
2022/08/09 02:03:00;;;;;;;2.58;1.40;;;14.70;99.80;;;;;;4245756;28;20103;-82
2022/08/09 02:05:05;;;;;;;2.25;1.70;;;14.70;99.80;;;;;;4265077;27;20147;-82
2022/08/09 02:07:14;;;;;;;3.78;1.48;;;14.70;99.90;;;;;;4246334;28;20483;-82
2022/08/09 02:09:16;;;;;;;2.60;1.77;;;14.60;99.90;;;;;;4264733;27;20042;-82
2022/08/09 02:11:18;;;;;;;5.75;1.95;;;14.60;99.90;;;;;;4246313;28;20589;-82
2022/08/09 02:13:23;;;;;;;3.35;1.63;;;14.60;99.90;;;;;;4255656;27;20046;-82
2022/08/09 02:15:26;;;;;;;2.35;1.60;;;14.60;99.90;;;;;;4229115;28;20052;-82
2022/08/09 02:17:30;;;;;;;2.58;1.67;;;14.60;99.90;;;;;;4228583;28;20494;-82
2022/08/09 02:19:31;;;;;;;3.20;1.65;;;14.60;99.90;;;;;;4212332;28;20056;-82
2022/08/09 02:21:38;;;;;;;2.03;1.60;;;14.50;99.90;;;;;;4247247;28;20551;-82
2022/08/09 02:23:47;;;;;;;2.97;1.90;;;14.50;99.90;;;;;;4247444;27;20054;-82
2022/08/09 02:25:51;;;;;;;3.30;1.48;;;14.50;99.90;;;;;;4250015;27;20519;-82
2022/08/09 02:28:07;;;;;;;2.65;1.70;;;14.50;99.90;;;;;;4215166;28;20058;-82
2022/08/09 02:30:09;;;;;;;2.95;2.00;;;14.50;99.90;;;;;;4232386;28;20081;-82
2022/08/09 02:32:11;;;;;;;4.72;1.60;;;14.40;99.90;;;;;;4232404;28;20046;-82
2022/08/09 02:34:18;;;;;;;3.80;1.65;;;14.40;99.90;;;;;;4249878;27;20047;-82
2022/08/09 02:36:26;;;;;;;2.45;1.80;;;14.40;99.90;;;;;;4250150;27;20043;-82
2022/08/09 02:38:30;;;;;;;2.22;1.40;;;14.40;99.90;;;;;;4248231;27;20466;-82
2022/08/09 02:40:33;;;;;;;4.13;1.48;;;14.40;99.90;;;;;;4249164;27;20138;-82
2022/08/09 02:42:38;;;;;;;3.30;2.38;;;14.50;99.90;;;;;;4231333;28;20055;-82
2022/08/09 02:45:07;;;;;;;4.75;1.95;;;14.30;99.90;;;;;;4266854;27;20054;-83
2022/08/09 02:47:15;;;;;;;2.97;1.80;;;14.30;99.90;;;;;;4256908;27;20046;-83
2022/08/09 02:49:18;;;;;;;2.83;1.70;;;14.30;99.90;;;;;;4267096;27;20038;-82
2022/08/09 02:51:20;;;;;;;3.35;1.90;;;14.30;99.90;;;;;;4267392;27;20043;-82
2022/08/09 02:53:30;;;;;;;3.38;1.75;;;14.30;99.90;;;;;;4267135;27;20039;-82
2022/08/09 02:55:34;;;;;;;1.73;1.23;;;14.20;99.90;;;;;;4267286;27;20084;-82
2022/08/09 02:57:37;;;;;;;2.78;1.55;;;14.20;99.90;;;;;;4247916;27;20122;-82
2022/08/09 02:59:40;;;;;;;5.53;1.60;;;14.20;99.90;;;;;;4266996;27;20065;-83
2022/08/09 03:01:42;;;;;;;2.83;1.45;;;14.10;99.90;;;;;;4248442;27;20468;-82
2022/08/09 03:03:44;;;;;;;4.78;2.20;;;14.20;99.90;;;;;;4248787;27;20078;-82
2022/08/09 03:05:46;;;;;;;2.47;1.33;;;14.20;99.90;;;;;;4266769;27;20092;-82
2022/08/09 03:07:48;;;;;;;3.88;1.45;;;14.10;99.90;;;;;;4236806;27;20039;-82
2022/08/09 03:09:52;;;;;;;3.10;1.60;;;14.10;99.90;;;;;;4214247;28;20044;-82
2022/08/09 03:11:53;;;;;;;4.45;1.35;;;14.10;99.90;;;;;;4249919;27;20047;-82
2022/08/09 03:13:54;;;;;;;1.40;1.10;;;14.10;99.90;;;;;;4231191;28;20054;-82
2022/08/09 03:15:56;;;;;;;1.80;1.17;;;14.10;99.90;;;;;;4231575;28;20083;-82
2022/08/09 03:17:57;;;;;;;1.40;1.00;;;14.00;99.90;;;;;;4249703;27;20043;-82
2022/08/09 03:20:00;;;;;;;2.60;1.42;;;14.00;99.90;;;;;;4249196;27;20184;-82
2022/08/09 03:22:01;;;;;;;3.58;1.10;;;14.00;99.90;;;;;;4231124;28;20087;-82
2022/08/09 03:24:02;;;;;;;1.88;1.40;;;14.00;99.90;;;;;;4249517;27;20052;-82
2022/08/09 03:26:04;;;;;;;3.30;1.38;;;14.00;99.90;;;;;;4214186;28;20044;-82
2022/08/09 03:28:05;;;;;;;2.60;1.30;;;13.90;99.90;;;;;;4231451;28;20043;-82
2022/08/09 03:30:06;;;;;;;2.22;1.52;;;13.90;99.90;;;;;;4249038;27;20487;-82
2022/08/09 03:32:08;;;;;;;2.78;1.40;;;13.90;99.90;;;;;;4214254;28;20047;-83
2022/08/09 03:34:10;;;;;;;3.42;1.80;;;13.90;99.90;;;;;;4237548;27;20054;-82
2022/08/09 03:36:11;;;;;;;5.40;1.85;;;13.90;99.90;;;;;;4247038;27;20039;-82
2022/08/09 03:38:12;;;;;;;4.22;2.10;;;13.90;99.90;;;;;;4248090;27;20090;-82
2022/08/09 03:40:14;;;;;;;5.03;1.90;;;13.90;99.90;;;;;;4266508;27;20087;-82
2022/08/09 03:42:14;;;;;;;5.35;2.03;;;13.90;99.90;;;;;;4230863;28;20042;-81
2022/08/09 03:44:15;;;;;;;3.85;1.90;;;13.80;99.90;;;;;;4265913;27;20127;-82
2022/08/09 03:46:16;;;;;;;4.40;1.80;;;13.90;99.90;;;;;;4265899;27;20517;-82
2022/08/09 03:48:17;;;;;;;3.33;1.30;;;13.80;99.90;;;;;;4247690;27;20047;-82
2022/08/09 03:50:19;;;;;;;2.67;1.38;;;13.80;99.90;;;;;;4266157;27;20039;-82
2022/08/09 03:52:21;;;;;;;3.60;1.77;;;13.80;99.90;;;;;;4266235;27;20520;-82
2022/08/09 03:54:25;;;;;;;4.93;1.85;;;13.80;99.90;;;;;;4265588;27;20056;-82
2022/08/09 03:56:25;;;;;;;3.88;1.60;;;13.80;99.90;;;;;;4266248;27;20498;-82
2022/08/09 03:58:26;;;;;;;6.70;2.50;;;13.80;99.90;;;;;;4247404;27;20043;-81
2022/08/09 04:00:27;;;;;;;6.40;1.50;;;13.80;99.90;;;;;;4264788;27;20521;-81
2022/08/09 04:02:30;;;;;;;4.50;1.30;;;13.80;99.90;;;;;;4265222;27;20482;-81
2022/08/09 04:04:32;;;;;;;2.22;0.93;;;13.70;99.90;;;;;;4247157;27;20110;-81
2022/08/09 04:06:35;;;;;;;3.05;1.17;;;13.70;99.90;;;;;;4247657;27;20050;-81
2022/08/09 04:08:35;;;;;;;3.00;0.90;;;13.70;99.90;;;;;;4265353;27;20042;-81
2022/08/09 04:10:36;;;;;;;3.78;0.88;;;13.70;99.90;;;;;;4266886;27;20038;-81
2022/08/09 04:12:49;;;;;;;2.92;0.98;;;13.70;99.90;;;;;;4267329;27;20098;-81
2022/08/09 04:14:50;;;;;;;0.93;0.82;;;13.60;99.90;;;;;;4230517;28;20047;-82
2022/08/09 04:16:50;;;;;;;1.45;0.90;;;13.60;99.90;;;;;;4231810;28;20047;-81
2022/08/09 04:18:51;;;;;;;1.45;0.95;;;13.60;99.90;;;;;;4248268;27;20047;-81
2022/08/09 04:20:52;;;;;;;1.35;1.00;;;13.50;99.90;;;;;;4265478;27;20478;-81
2022/08/09 04:22:52;;;;;;;3.50;1.20;;;13.50;99.90;;;;;;4247574;27;20069;-82
2022/08/09 04:24:53;;;;;;;1.98;1.13;;;13.60;99.90;;;;;;4246977;27;20107;-82
2022/08/09 04:26:54;;;;;;;3.80;1.35;;;13.50;99.90;;;;;;4265667;27;20117;-82
2022/08/09 04:28:54;;;;;;;2.65;1.30;;;13.50;99.90;;;;;;4246044;27;20100;-81
2022/08/09 04:30:55;;;;;;;2.45;0.95;;;13.60;99.90;;;;;;4232536;27;20105;-81
2022/08/09 04:32:58;;;;;;;1.83;0.65;;;13.60;99.90;;;;;;4230818;28;20040;-81
2022/08/09 04:34:59;;;;;;;0.70;0.60;;;13.60;99.90;;;;;;4249110;27;20092;-82
2022/08/09 04:37:00;;;;;;;1.52;0.90;;;13.60;99.90;;;;;;4229845;28;20059;-82
2022/08/09 04:39:04;;;;;;;1.63;0.85;;;13.70;99.90;;;;;;4248049;27;20039;-82
2022/08/09 04:41:05;;;;;;;2.85;1.45;;;13.70;99.90;;;;;;4248057;27;20126;-82
2022/08/09 04:43:05;;;;;;;1.55;0.90;;;13.70;99.90;;;;;;4229300;28;20047;-81
2022/08/09 04:45:07;;;;;;;2.95;1.38;;;13.60;99.90;;;;;;4229698;28;20523;-82
2022/08/09 04:47:08;;;;;;;2.65;1.50;;;13.70;99.90;;;;;;4229863;28;20043;-82
2022/08/09 04:49:08;;;;;;;4.55;1.70;;;13.70;99.90;;;;;;4229634;28;20088;-82
2022/08/09 04:51:10;;;;;;;4.18;1.30;;;13.70;99.90;;;;;;4229381;28;20044;-82
2022/08/09 04:53:11;;;;;;;4.45;1.40;;;13.70;99.90;;;;;;4248008;27;20413;-82
2022/08/09 04:55:12;;;;;;;3.55;1.80;;;13.70;99.90;;;;;;4255460;27;20045;-82
2022/08/09 04:57:13;;;;;;;3.45;1.42;;;13.80;99.90;;;;;;4229749;28;20044;-82
2022/08/09 04:59:14;;;;;;;3.97;1.50;;;13.70;99.90;;;;;;4265065;27;20034;-82
2022/08/09 05:01:14;;;;;;;3.92;1.73;;;13.80;99.90;;;;;;4229253;28;20497;-82
2022/08/09 05:03:15;;;;;;;3.95;2.15;;;13.70;99.90;;;;;;4246602;27;20047;-83
2022/08/09 05:05:16;;;;;;;2.50;1.20;;;13.80;99.90;;;;;;4264919;27;20045;-83
2022/08/09 05:07:16;;;;;;;2.72;1.08;;;13.80;99.90;;;;;;4246789;27;20411;-82
2022/08/09 05:09:17;;;;;;;1.60;0.93;;;13.90;99.90;;;;;;4246391;27;20135;-82
2022/08/09 05:11:18;;;;;;;2.42;0.93;;;13.90;99.90;;;;;;4229931;28;20131;-82
2022/08/09 05:13:18;;;;;;;1.88;1.00;;;13.90;99.90;;;;;;4264986;27;20039;-82
2022/08/09 05:15:19;;;;;;;1.52;0.88;;;14.00;99.90;;;;;;4246285;27;20051;-81
2022/08/09 05:17:20;;;;;;;5.82;1.95;;;14.00;99.90;;;;;;4264822;27;20047;-82
2022/08/09 05:19:21;;;;;;;2.45;1.27;;;14.00;99.90;;;;;;4264909;27;20042;-82
2022/08/09 05:21:22;;;;;;;2.10;1.08;;;14.10;99.90;;;;;;4264515;27;20398;-82
2022/08/09 05:23:23;;;;;;;2.85;1.25;;;14.20;99.90;;;;;;4213186;28;20048;-82
2022/08/09 05:25:25;;;;;;;1.65;1.13;;;14.20;99.90;;;;;;4265192;27;20088;-82
2022/08/09 05:27:26;;;;;;;4.50;1.63;;;14.20;99.90;;;;;;4246637;28;20051;-82
2022/08/09 05:29:26;;;;;;;1.48;1.05;;;14.30;99.90;;;;;;4264200;27;20043;-81
2022/08/09 05:31:27;;;;;;;1.40;1.08;;;14.40;99.90;;;;;;4246287;28;20043;-82
2022/08/09 05:33:28;;;;;;;3.92;1.38;;;14.40;99.90;;;;;;4264853;27;20099;-82
2022/08/09 05:35:29;;;;;;;1.83;1.60;;;14.50;99.90;;;;;;4259356;27;20110;-82
2022/08/09 05:37:30;;;;;;;3.20;1.40;;;14.50;99.90;;;;;;4246952;28;20075;-82
2022/08/09 05:39:31;;;;;;;2.42;1.50;;;14.60;99.90;;;;;;4229182;28;20384;-82
2022/08/09 05:41:32;;;;;;;3.47;1.85;;;14.60;99.90;;;;;;4247561;28;20054;-82
2022/08/09 05:43:34;;;;;;;4.32;1.73;;;14.70;99.90;;;;;;4247556;28;20035;-82
2022/08/09 05:45:35;;;;;;;4.60;1.95;;;14.80;99.90;;;;;;4229202;28;20103;-82
2022/08/09 05:47:36;;;;;;;4.68;1.65;;;14.90;99.90;;;;;;4228667;28;20108;-82
2022/08/09 05:49:37;;;;;;;3.85;1.75;;;15.00;99.90;;;;;;4247267;28;20054;-82
2022/08/09 05:51:38;;;;;;;4.22;2.10;;;15.10;99.90;;;;;;4248750;27;20403;-82
2022/08/09 05:53:39;;;;;;;5.32;2.30;;;15.20;99.90;;;;;;4246363;28;20035;-82
2022/08/09 05:55:39;;;;;;;5.47;2.28;;;15.30;99.90;;;;;;4229513;28;20059;-84
2022/08/09 05:57:43;;;;;;;5.78;2.28;;;15.40;99.90;;;;;;4245568;28;20439;-82
2022/08/09 05:59:43;;;;;;;3.28;2.25;;;15.50;99.90;;;;;;4247672;27;20411;-82
2022/08/09 06:01:44;;;;;;;4.13;2.13;;;15.60;99.90;;;;;;4268197;27;20050;-82
2022/08/09 06:03:45;;;;;;;5.80;2.80;;;15.70;99.90;;;;;;4268340;27;20411;-82
2022/08/09 06:05:46;;;;;;;4.57;2.72;;;15.80;99.90;;;;;;4267356;27;20092;-82
2022/08/09 06:07:46;;;;;;;3.83;2.22;;;15.90;99.90;;;;;;4257767;27;20526;-82
2022/08/09 06:09:47;;;;;;;4.07;1.90;;;15.90;99.90;;;;;;4251071;27;20371;-81
2022/08/09 06:11:48;;;;;;;4.72;2.10;;;16.00;99.90;;;;;;4217026;28;20048;-82
2022/08/09 06:13:49;;;;;;;3.78;2.10;;;16.10;99.90;;;;;;4250500;27;20375;-82
2022/08/09 06:15:51;;;;;;;3.60;2.42;;;16.20;99.90;;;;;;4233300;28;20058;-82
2022/08/09 06:17:52;;;;;;;5.30;2.15;;;16.30;99.90;;;;;;4251818;27;20045;-82
2022/08/09 06:19:53;;;;;;;2.97;2.08;;;16.40;99.90;;;;;;4251300;27;20410;-82
2022/08/09 06:21:54;;;;;;;6.03;2.20;;;16.40;99.90;;;;;;4233972;28;20051;-81
2022/08/09 06:23:55;;;;;;;7.30;3.15;;;16.60;99.90;;;;;;4250231;27;20104;-82
2022/08/09 06:25:55;;;;;;;4.80;2.85;;;16.70;99.90;;;;;;4232627;28;20445;-82
2022/08/09 06:27:56;;;;;;;4.45;2.53;;;16.80;99.90;;;;;;4251123;27;20051;-82
2022/08/09 06:29:57;;;;;;;6.70;3.03;;;16.90;99.90;;;;;;4232061;28;20050;-82
2022/08/09 06:31:58;;;;;;;6.55;3.15;;;17.10;99.90;;;;;;4251304;27;20034;-82
2022/08/09 06:33:58;;;;;;;4.28;2.72;;;17.20;99.90;;;;;;4241868;27;20096;-82
2022/08/09 06:35:59;;;;;;;5.50;2.70;;;17.20;99.90;;;;;;4267063;27;20046;-82
2022/08/09 06:38:01;;;;;;;8.57;3.80;;;17.40;99.90;;;;;;4248957;27;20050;-82
2022/08/09 06:40:03;;;;;;;3.70;2.70;;;17.50;99.90;;;;;;4248913;27;20414;-82
2022/08/09 06:42:04;;;;;;;5.05;2.60;;;17.30;99.90;;;;;;4268608;27;20050;-83
2022/08/09 06:44:08;;;;;;;5.70;3.10;;;17.70;99.90;;;;;;4248665;27;20047;-83
2022/08/09 06:46:09;;;;;;;6.03;2.90;;;17.80;99.90;;;;;;4267363;27;20479;-82
2022/08/09 06:48:11;;;;;;;4.55;2.60;;;17.90;99.90;;;;;;4265335;27;20086;-82
2022/08/09 06:50:11;;;;;;;5.30;2.42;;;17.90;99.90;;;;;;4267352;27;20051;-82
2022/08/09 06:52:16;;;;;;;5.05;2.90;;;18.10;99.90;;;;;;4249442;27;20573;-82
2022/08/09 06:54:17;;;;;;;6.50;2.78;;;18.20;99.90;;;;;;4248522;27;20042;-83
2022/08/09 06:56:17;;;;;;;4.43;3.10;;;18.20;99.90;;;;;;4267470;27;20038;-82
2022/08/09 06:58:18;;;;;;;10.57;3.53;;;18.30;99.90;;;;;;4268010;27;20042;-82
2022/08/09 07:00:19;;;;;;;5.43;3.38;;;18.40;99.90;;;;;;4267964;27;20465;-82
2022/08/09 07:02:20;;;;;;;4.55;2.42;;;18.50;99.90;;;;;;4267496;27;20049;-82
2022/08/09 07:04:20;;;;;;;3.75;2.10;;;18.60;99.90;;;;;;4267060;27;20035;-82
2022/08/09 07:06:21;;;;;;;5.20;2.60;;;18.70;99.90;;;;;;4244382;27;20055;-82
2022/08/09 07:08:22;;;;;;;5.05;2.35;;;18.80;99.90;;;;;;4250002;27;20039;-82
2022/08/09 07:10:23;;;;;;;3.78;2.63;;;18.90;99.90;;;;;;4230664;28;20055;-82
2022/08/09 07:12:24;;;;;;;7.18;2.20;;;19.00;99.90;;;;;;4214117;28;20127;-82
2022/08/09 07:14:25;;;;;;;3.95;2.20;;;19.10;99.90;;;;;;4249145;27;20407;-82
2022/08/09 07:16:27;;;;;;;4.60;1.98;;;19.20;99.90;;;;;;4214475;28;20048;-82
2022/08/09 07:18:27;;;;;;;4.82;1.75;;;19.30;99.90;;;;;;4249845;27;20054;-81
2022/08/09 07:20:28;;;;;;;5.97;2.17;;;19.40;99.90;;;;;;4248387;27;20128;-83
2022/08/09 07:22:29;;;;;;;4.82;2.42;;;19.50;99.90;;;;;;4261684;27;20064;-82
2022/08/09 07:24:30;;;;;;;4.85;2.13;;;19.60;99.90;;;;;;4267012;27;20118;-82
2022/08/09 07:26:31;;;;;;;3.90;1.83;;;19.80;99.90;;;;;;4266688;27;20503;-82
2022/08/09 07:28:32;;;;;;;4.03;1.92;;;19.90;99.90;;;;;;4266978;27;20509;-82
2022/08/09 07:30:36;;;;;;;5.15;2.15;;;19.90;99.90;;;;;;4266556;27;20047;-82
2022/08/09 07:32:36;;;;;;;3.72;1.67;;;19.90;99.90;;;;;;4266642;27;20039;-82
2022/08/09 07:34:37;;;;;;;2.17;1.50;;;20.00;99.90;;;;;;4232443;27;20042;-82
2022/08/09 07:36:39;;;;;;;2.50;1.40;;;20.00;99.90;;;;;;4249087;27;20192;-82
2022/08/09 07:38:40;;;;;;;3.17;1.92;;;20.10;99.90;;;;;;4249585;27;20039;-82
2022/08/09 07:40:41;;;;;;;3.45;2.00;;;20.20;99.90;;;;;;4218437;28;20039;-82
2022/08/09 07:42:59;;;;;;;3.10;1.60;;;20.30;99.90;;;;;;4266963;27;20083;-82
2022/08/09 07:45:00;;;;;;;3.20;1.20;;;20.50;99.80;;;;;;4248324;27;20507;-82
2022/08/09 07:47:00;;;;;;;1.85;1.00;;;20.70;99.50;;;;;;4230612;28;20047;-82
2022/08/09 07:49:01;;;;;;;3.38;1.10;;;20.70;99.20;;;;;;4266149;27;20041;-82
2022/08/09 07:51:02;;;;;;;2.97;1.02;;;20.80;99.00;;;;;;4266441;27;20074;-83
2022/08/09 07:53:03;;;;;;;1.38;0.80;;;20.90;98.80;;;;;;4266424;27;20054;-82
2022/08/09 07:55:05;;;;;;;1.30;0.75;;;21.10;98.50;;;;;;4266343;27;20454;-82
2022/08/09 07:57:06;;;;;;;2.25;1.05;;;21.30;98.20;;;;;;4266397;27;20041;-82
2022/08/09 07:59:06;;;;;;;3.58;0.90;;;21.60;97.90;;;;;;4234738;27;20100;-82
2022/08/09 08:01:08;;;;;;;4.45;1.13;;;21.60;97.60;;;;;;4230233;28;20126;-83
2022/08/09 08:03:09;;;;;;;1.58;1.13;;;21.70;97.30;;;;;;4249090;27;20046;-82
2022/08/09 08:05:10;;;;;;;2.78;0.95;;;21.70;97.00;;;;;;4248885;27;20047;-83
2022/08/09 08:07:10;;;;;;;2.97;0.80;;;21.70;96.90;;;;;;4248948;27;20502;-82
2022/08/09 08:09:11;;;;;;;2.58;0.98;;;21.60;96.70;;;;;;4248825;27;20154;-82
2022/08/09 08:11:12;;;;;;;2.80;0.70;;;21.70;96.70;;;;;;4248500;27;20051;-82
2022/08/09 08:13:13;;;;;;;1.98;0.82;;;21.80;96.70;;;;;;4248820;27;20409;-82
2022/08/09 08:15:20;;;;;;;3.17;0.70;;;21.90;96.70;;;;;;4248627;27;20050;-84
2022/08/09 08:17:21;;;;;;;2.25;0.68;;;22.00;96.60;;;;;;4218178;28;20051;-82
2022/08/09 08:19:21;;;;;;;1.13;0.80;;;22.00;96.60;;;;;;4247250;27;20051;-82
2022/08/09 08:21:23;;;;;;;2.33;0.90;;;21.80;96.50;;;;;;4230414;28;20054;-82
2022/08/09 08:23:25;;;;;;;2.53;1.17;;;21.80;96.60;;;;;;4246917;27;20050;-82
2022/08/09 08:25:26;;;;;;;1.25;0.75;;;21.70;96.70;;;;;;4247129;27;20053;-83
2022/08/09 08:27:26;;;;;;;2.65;0.70;;;21.70;96.60;;;;;;4266083;27;20474;-83
2022/08/09 08:29:27;;;;;;;0.77;0.55;;;21.60;96.50;;;;;;4266163;27;20043;-83
2022/08/09 08:31:28;;;;;;;3.95;0.68;;;21.50;96.50;;;;;;4266953;27;20051;-81
2022/08/09 08:33:29;;;;;;;1.65;0.70;;;21.40;96.40;;;;;;4249449;27;20426;-82
2022/08/09 08:35:30;;;;;;;1.13;0.65;;;21.30;96.50;;;;;;4265339;27;20118;-82
2022/08/09 08:37:31;;;;;;;1.38;0.60;;;21.30;96.30;;;;;;4264687;27;20093;-82
2022/08/09 08:39:32;;;;;;;2.20;0.52;;;21.20;96.00;;;;;;4246806;27;20569;-82
2022/08/09 08:41:34;;;;;;;2.05;0.77;;;21.10;95.90;;;;;;4265323;27;20049;-82
2022/08/09 08:43:37;;;;;;;2.55;0.90;;;21.00;95.80;;;;;;4258930;27;20031;-83
2022/08/09 08:45:48;;;;;;;0.52;0.38;;;21.00;95.80;;;;;;4230465;28;20054;-82
2022/08/09 08:47:48;;;;;;;0.88;0.38;;;21.00;95.70;;;;;;4248913;27;20071;-83
2022/08/09 08:49:51;;;;;;;3.00;0.50;;;21.00;95.60;;;;;;4230179;28;20055;-82
2022/08/09 08:51:53;;;;;;;1.38;0.65;;;21.00;95.40;;;;;;4230402;28;20159;-82
2022/08/09 08:53:54;;;;;;;0.93;0.40;;;21.10;95.30;;;;;;4257547;27;20149;-82
2022/08/09 08:55:55;;;;;;;2.08;1.20;;;21.10;95.10;;;;;;4265491;27;20046;-83
2022/08/09 08:57:56;;;;;;;0.60;0.50;;;21.20;95.10;;;;;;4247078;27;20405;-82
2022/08/09 08:59:56;;;;;;;0.70;0.45;;;21.40;95.00;;;;;;4264588;27;20046;-82
2022/08/09 09:01:58;;;;;;;1.48;0.43;;;21.50;94.70;;;;;;4265995;27;20376;-82
2022/08/09 09:04:00;;;;;;;2.47;0.70;;;21.60;94.50;;;;;;4264851;27;20402;-82
2022/08/09 09:06:02;;;;;;;1.65;0.50;;;21.70;94.40;;;;;;4264988;27;20046;-82
2022/08/09 09:08:05;;;;;;;2.00;0.60;;;21.70;94.30;;;;;;4245765;27;20043;-82
2022/08/09 09:10:08;;;;;;;0.82;0.60;;;21.80;94.30;;;;;;4230687;27;20208;-82
2022/08/09 09:12:09;;;;;;;1.23;0.55;;;21.80;94.40;;;;;;4247556;27;20047;-82
2022/08/09 09:14:16;;;;;;;2.60;0.55;;;21.90;94.40;;;;;;4229468;28;20039;-82
2022/08/09 09:16:17;;;;;;;3.17;0.50;;;21.90;94.10;;;;;;4247739;27;20051;-82
2022/08/09 09:18:18;;;;;;;0.32;0.32;;;21.90;94.00;;;;;;4229314;28;20035;-82
2022/08/09 09:20:19;;;;;;;1.20;0.40;;;21.90;93.80;;;;;;4247418;27;20506;-83
2022/08/09 09:22:21;;;;;;;2.30;0.70;;;22.00;93.70;;;;;;4247920;27;20079;-83
2022/08/09 09:24:27;;;;;;;1.95;0.77;;;22.00;93.50;;;;;;4247673;27;20039;-83
2022/08/09 09:26:28;;;;;;;1.33;0.70;;;22.10;93.50;;;;;;4247488;27;20127;-83
2022/08/09 09:28:33;;;;;;;1.77;0.80;;;22.30;93.60;;;;;;4229305;28;20411;-83
2022/08/09 09:30:50;;;;;;;3.22;0.70;;;22.50;93.40;;;;;;4248015;27;20475;-83
2022/08/09 09:33:19;;;;;;;1.88;0.82;;;22.70;93.20;;;;;;4229210;28;20043;-83
2022/08/09 09:35:23;;;;;;;1.15;1.05;;;22.90;92.90;;;;;;4237481;27;20059;-83
2022/08/09 09:37:28;;;;;;;1.95;0.50;;;23.10;92.80;;;;;;4232877;27;20050;-83
2022/08/09 09:39:29;;;;;;;1.67;0.50;;;23.30;92.50;;;;;;4232693;28;20583;-82
2022/08/09 09:41:32;;;;;;;0.85;0.60;;;23.50;92.40;;;;;;4251054;27;20043;-83
2022/08/09 09:43:33;;;;;;;1.05;0.50;;;23.60;92.20;;;;;;4232677;28;20047;-83
2022/08/09 09:45:50;;;;;;;2.55;1.13;;;23.60;91.90;;;;;;4232388;28;20051;-83
2022/08/09 09:47:51;;;;;;;2.25;0.40;;;23.60;91.20;;;;;;4232270;28;20601;-83
2022/08/09 09:49:53;;;;;;;1.58;0.45;;;23.60;91.30;;;;;;4251007;27;20047;-83
2022/08/09 09:52:08;;;;;;;1.67;0.30;;;23.60;91.00;;;;;;4232489;28;20047;-83
2022/08/09 09:54:10;;;;;;;0.57;0.30;;;23.50;90.80;;;;;;4232442;28;20090;-83
2022/08/09 09:56:11;;;;;;;1.42;0.35;;;23.50;90.80;;;;;;4232468;28;20073;-82
2022/08/09 09:58:11;;;;;;;4.07;0.40;;;23.60;90.80;;;;;;4250474;27;20079;-83
2022/08/09 10:00:23;;;;;;;2.03;0.38;;;23.50;90.50;;;;;;4246492;27;20047;-83
2022/08/09 10:02:25;;;;;;;1.02;0.30;;;23.60;90.30;;;;;;4267523;27;20539;-83
2022/08/09 10:04:26;;;;;;;0.93;0.40;;;23.80;90.40;;;;;;4267334;27;20070;-84
2022/08/09 10:06:40;;;;;;;1.15;0.40;;;23.90;90.10;;;;;;4267751;27;20125;-83
2022/08/09 10:08:43;;;;;;;2.03;0.45;;;24.10;90.00;;;;;;4246858;27;20514;-83
2022/08/09 10:10:43;;;;;;;3.72;0.38;;;24.30;89.20;;;;;;4231954;28;20119;-82
2022/08/09 10:12:52;;;;;;;0.47;0.30;;;24.50;88.60;;;;;;4232356;28;20132;-83
2022/08/09 10:15:11;;;;;;;0.80;0.45;;;24.80;87.60;;;;;;4231423;28;20443;-83
2022/08/09 10:17:12;;;;;;;1.45;0.22;;;25.30;86.50;;;;;;4250112;27;20499;-82
2022/08/09 10:19:14;;;;;;;0.95;0.32;;;25.70;85.70;;;;;;4249673;27;20047;-83
2022/08/09 10:21:14;;;;;;;3.75;0.38;;;26.00;84.60;;;;;;4250155;27;20126;-83
2022/08/09 10:23:23;;;;;;;1.20;0.40;;;25.80;83.60;;;;;;4256700;27;20046;-83
2022/08/09 10:25:25;;;;;;;1.30;0.20;;;26.00;83.20;;;;;;4248144;27;20043;-83
2022/08/09 10:27:26;;;;;;;1.13;0.30;;;26.30;82.20;;;;;;4249082;27;20054;-83
2022/08/09 10:29:27;;;;;;;1.23;0.10;;;26.70;81.20;;;;;;4267143;27;20123;-83
2022/08/09 10:31:27;;;;;;;1.30;0.30;;;27.10;79.50;;;;;;4266686;27;20046;-83
2022/08/09 10:33:29;;;;;;;0.52;0.30;;;27.50;78.80;;;;;;4248370;27;20065;-83
2022/08/09 10:35:31;;;;;;;0.25;0.20;;;27.70;78.00;;;;;;4241458;27;20496;-83
2022/08/09 10:37:31;;;;;;;2.78;0.40;;;27.70;76.90;;;;;;4231712;28;20465;-83
2022/08/09 10:39:34;;;;;;;0.50;0.30;;;27.60;76.40;;;;;;4231664;28;20059;-83
2022/08/09 10:41:35;;;;;;;0.47;0.35;;;27.40;75.70;;;;;;4231974;28;20083;-83